Time;durP1;ratioP1;P1;durP2;ratioP2;P2;SDS_P1;SDS_P2;PMS_P1;PMS_P2;Temp;Humidity;BMP_temperature;BMP_pressure;BME280_temperature;BME280_humidity;BME280_pressure;Samples;Min_cycle;Max_cycle;Signal;HPM_P1;HPM_P2
2021/10/13 00:01:20;;;;;;;19.13;9.70;;;;;;;5.53;100.00;99153.28;5035187;28;20399;-70
2021/10/13 00:03:46;;;;;;;15.20;8.43;;;;;;;5.67;100.00;99155.38;5035424;28;20167;-70
2021/10/13 00:06:11;;;;;;;20.33;10.07;;;;;;;5.64;100.00;99151.16;5034962;28;20090;-70
2021/10/13 00:08:37;;;;;;;14.07;8.40;;;;;;;5.53;100.00;99129.13;5034889;28;20120;-69
2021/10/13 00:11:02;;;;;;;18.25;8.95;;;;;;;5.66;100.00;99156.38;5032200;28;20029;-70
2021/10/13 00:13:27;;;;;;;18.08;8.75;;;;;;;5.69;100.00;99156.03;5032987;28;20105;-69
2021/10/13 00:15:54;;;;;;;15.75;8.52;;;;;;;5.78;100.00;99155.06;5033052;28;20068;-70
2021/10/13 00:18:19;;;;;;;16.77;8.93;;;;;;;5.67;100.00;99136.56;5034069;28;20025;-70
2021/10/13 00:20:44;;;;;;;21.00;9.30;;;;;;;5.90;100.00;99167.16;5034782;28;20052;-70
2021/10/13 00:23:10;;;;;;;15.43;9.10;;;;;;;5.90;100.00;99166.34;5034954;28;20049;-70
2021/10/13 00:25:36;;;;;;;11.98;7.53;;;;;;;5.87;100.00;99164.81;5034293;28;20065;-70
2021/10/13 00:28:01;;;;;;;15.30;8.32;;;;;;;5.93;100.00;99172.25;5033179;28;20165;-70
2021/10/13 00:30:26;;;;;;;17.98;8.93;;;;;;;5.87;100.00;99162.13;5031990;28;20430;-70
2021/10/13 00:32:51;;;;;;;13.57;8.40;;;;;;;5.98;100.00;99177.13;5034192;28;20030;-70
2021/10/13 00:35:17;;;;;;;13.52;7.97;;;;;;;6.08;100.00;99182.34;5033400;28;20080;-70
2021/10/13 00:37:42;;;;;;;13.25;8.18;;;;;;;6.00;100.00;99171.56;5034769;28;20057;-70
2021/10/13 00:40:08;;;;;;;13.27;7.40;;;;;;;5.97;100.00;99169.22;5033722;28;20112;-70
2021/10/13 00:42:33;;;;;;;12.50;7.03;;;;;;;6.02;100.00;99183.00;5033925;28;20025;-70
2021/10/13 00:44:59;;;;;;;14.27;7.70;;;;;;;6.05;100.00;99188.91;5034318;28;20082;-70
2021/10/13 00:47:24;;;;;;;11.88;7.10;;;;;;;6.11;100.00;99193.59;5032220;28;20056;-70
2021/10/13 00:49:50;;;;;;;12.07;7.22;;;;;;;6.03;100.00;99187.38;5034256;28;20033;-70
2021/10/13 00:52:17;;;;;;;17.02;7.40;;;;;;;6.03;100.00;99180.16;5032702;28;20025;-70
2021/10/13 00:54:46;;;;;;;12.30;6.97;;;;;;;6.11;100.00;99184.72;5034163;28;20029;-69
2021/10/13 00:57:12;;;;;;;12.98;7.22;;;;;;;5.97;100.00;99174.59;5031829;28;20036;-69
2021/10/13 00:59:37;;;;;;;13.10;7.13;;;;;;;5.99;100.00;99154.63;5034123;28;20029;-70
2021/10/13 01:02:04;;;;;;;12.18;6.90;;;;;;;6.08;100.00;99193.94;5032445;28;20579;-70
2021/10/13 01:04:29;;;;;;;12.65;7.57;;;;;;;6.10;100.00;99202.69;5016426;28;20391;-70
2021/10/13 01:07:15;;;;;;;10.68;6.60;;;;;;;6.18;100.00;99204.50;5028881;28;20033;-70
2021/10/13 01:10:21;;;;;;;12.88;5.90;;;;;;;6.17;100.00;99218.97;5033953;28;20120;-70
2021/10/13 01:12:57;;;;;;;13.05;6.78;;;;;;;6.31;100.00;99212.97;4971996;28;20414;-69
2021/10/13 01:15:36;;;;;;;13.63;6.38;;;;;;;6.21;100.00;99208.72;5027399;28;20083;-70
2021/10/13 01:18:10;;;;;;;11.75;6.18;;;;;;;6.10;100.00;99205.38;5031678;28;20060;-70
2021/10/13 01:21:02;;;;;;;13.15;6.53;;;;;;;6.25;100.00;99229.72;5026104;28;20033;-70
2021/10/13 01:23:55;;;;;;;10.95;6.20;;;;;;;6.23;100.00;99223.66;5014951;28;20147;-70
2021/10/13 01:26:36;;;;;;;10.80;6.07;;;;;;;6.13;100.00;99217.59;5024955;28;20025;-70
2021/10/13 01:29:09;;;;;;;13.57;6.43;;;;;;;6.25;100.00;99232.41;5020121;28;20040;-70
2021/10/13 01:31:42;;;;;;;13.18;6.78;;;;;;;6.23;100.00;99234.41;5029238;28;20032;-69
2021/10/13 01:34:24;;;;;;;9.82;5.68;;;;;;;6.13;100.00;99237.25;5024631;28;20029;-69
2021/10/13 01:37:04;;;;;;;10.60;6.32;;;;;;;6.16;100.00;99236.09;5030527;28;20098;-70
2021/10/13 01:39:32;;;;;;;8.20;5.65;;;;;;;6.07;100.00;99250.50;5032054;28;20033;-69
2021/10/13 01:42:03;;;;;;;8.80;5.57;;;;;;;6.02;100.00;99242.09;5012414;28;20030;-70
2021/10/13 01:44:31;;;;;;;9.80;5.85;;;;;;;5.91;100.00;99240.50;5013820;28;20419;-70
2021/10/13 01:47:00;;;;;;;10.43;5.72;;;;;;;5.87;100.00;99255.28;5027877;28;20563;-70
2021/10/13 01:49:30;;;;;;;9.23;5.65;;;;;;;5.90;100.00;99253.09;5032353;28;20048;-70
2021/10/13 01:51:56;;;;;;;11.85;6.38;;;;;;;5.92;100.00;99261.84;5031038;28;20028;-70
2021/10/13 01:54:22;;;;;;;10.50;6.35;;;;;;;5.78;100.00;99248.19;5032586;28;20032;-69
2021/10/13 01:56:49;;;;;;;10.20;5.72;;;;;;;5.72;100.00;99247.00;5032275;28;20075;-70
2021/10/13 01:59:21;;;;;;;9.73;5.53;;;;;;;5.66;100.00;99247.66;5031473;28;20035;-69
2021/10/13 02:01:49;;;;;;;10.30;6.10;;;;;;;5.76;100.00;99266.28;5015143;28;20026;-69
2021/10/13 02:04:15;;;;;;;13.27;6.57;;;;;;;5.69;100.00;99237.41;5032125;28;20075;-69
2021/10/13 02:06:42;;;;;;;9.00;5.60;;;;;;;5.95;100.00;99275.97;5032359;28;20034;-69
2021/10/13 02:09:09;;;;;;;11.65;5.15;;;;;;;5.85;100.00;99268.84;5026192;28;20030;-69
2021/10/13 02:11:35;;;;;;;9.65;5.53;;;;;;;5.84;100.00;99279.75;5018718;28;20030;-70
2021/10/13 02:14:09;;;;;;;8.95;5.95;;;;;;;5.98;100.00;99281.03;5031539;28;20022;-70
2021/10/13 02:16:36;;;;;;;15.68;6.45;;;;;;;6.00;100.00;99281.69;5020788;28;20029;-70
2021/10/13 02:19:06;;;;;;;13.77;6.35;;;;;;;6.01;100.00;99278.84;5017951;28;20426;-69
2021/10/13 02:21:36;;;;;;;9.77;5.70;;;;;;;5.98;100.00;99284.56;5030436;28;20075;-69
2021/10/13 02:24:03;;;;;;;10.05;5.80;;;;;;;6.00;100.00;99287.06;5014818;28;20037;-70
2021/10/13 02:26:34;;;;;;;13.55;6.95;;;;;;;5.90;100.00;99288.00;5022146;28;20030;-69
2021/10/13 02:29:08;;;;;;;14.38;7.20;;;;;;;5.91;100.00;99289.69;5015597;28;20032;-69
2021/10/13 02:31:33;;;;;;;11.90;6.60;;;;;;;5.89;100.00;99293.53;5018248;28;20032;-70
2021/10/13 02:33:59;;;;;;;10.48;6.70;;;;;;;5.88;100.00;99290.00;5032570;28;20104;-70
2021/10/13 02:36:25;;;;;;;13.73;6.95;;;;;;;5.92;100.00;99295.88;5031644;28;20028;-70
2021/10/13 02:38:50;;;;;;;13.25;6.50;;;;;;;5.96;100.00;99301.84;5032242;28;20096;-69
2021/10/13 02:41:15;;;;;;;12.50;7.03;;;;;;;5.98;100.00;99311.41;5031670;28;20038;-70
2021/10/13 02:43:41;;;;;;;11.65;6.40;;;;;;;6.03;100.00;99308.25;5029584;28;20040;-70
2021/10/13 02:46:18;;;;;;;13.77;7.65;;;;;;;5.97;100.00;99316.94;5032188;28;20084;-69
2021/10/13 02:48:53;;;;;;;14.85;7.57;;;;;;;6.02;100.00;99317.28;5031563;28;20059;-69
2021/10/13 02:51:28;;;;;;;13.07;7.43;;;;;;;6.04;100.00;99310.75;5030497;28;20025;-69
2021/10/13 02:54:03;;;;;;;12.35;6.80;;;;;;;6.10;100.00;99315.50;5029407;28;20021;-69
2021/10/13 02:56:34;;;;;;;16.73;7.20;;;;;;;6.07;100.00;99323.03;5021698;28;20487;-69
2021/10/13 02:59:07;;;;;;;17.17;7.43;;;;;;;5.99;100.00;99309.56;5031688;28;20064;-69
2021/10/13 03:01:41;;;;;;;15.60;7.70;;;;;;;6.05;100.00;99319.66;5030539;28;20044;-71
2021/10/13 03:04:24;;;;;;;15.25;7.97;;;;;;;6.09;100.00;99321.03;5031528;28;20168;-70
2021/10/13 03:07:12;;;;;;;14.73;7.57;;;;;;;5.85;100.00;99295.72;5020030;28;20108;-71
2021/10/13 03:09:40;;;;;;;13.80;6.90;;;;;;;6.02;100.00;99320.81;5010907;28;20028;-71
2021/10/13 03:12:10;;;;;;;11.35;6.30;;;;;;;6.00;100.00;99313.91;5020279;28;20037;-70
2021/10/13 03:14:38;;;;;;;15.90;7.50;;;;;;;5.84;100.00;99296.72;5022066;28;20074;-71
2021/10/13 03:17:04;;;;;;;14.45;7.05;;;;;;;5.87;100.00;99309.81;5027632;28;20063;-70
2021/10/13 03:19:34;;;;;;;13.30;6.32;;;;;;;5.81;100.00;99323.88;5031333;28;20036;-71
2021/10/13 03:22:01;;;;;;;13.57;6.88;;;;;;;5.75;100.00;99326.38;5028522;28;20507;-71
2021/10/13 03:24:26;;;;;;;13.30;7.30;;;;;;;5.75;100.00;99323.69;5012142;28;20026;-70
2021/10/13 03:26:51;;;;;;;15.98;7.50;;;;;;;5.76;100.00;99331.56;5018593;28;20033;-71
2021/10/13 03:29:18;;;;;;;14.50;7.50;;;;;;;5.76;100.00;99315.44;5029439;28;20440;-70
2021/10/13 03:31:43;;;;;;;15.52;7.18;;;;;;;5.80;100.00;99338.31;5034606;28;20021;-69
2021/10/13 03:34:09;;;;;;;16.00;7.97;;;;;;;5.85;100.00;99327.09;5032365;28;20387;-69
2021/10/13 03:36:43;;;;;;;16.63;7.68;;;;;;;5.84;100.00;99337.00;5031082;28;20022;-69
2021/10/13 03:39:09;;;;;;;17.80;8.20;;;;;;;5.85;100.00;99344.03;5031402;28;20031;-69
2021/10/13 03:41:35;;;;;;;13.93;7.15;;;;;;;5.89;100.00;99342.75;5030322;28;20044;-69
2021/10/13 03:44:00;;;;;;;16.40;7.72;;;;;;;5.85;100.00;99332.47;5023860;28;20487;-69
2021/10/13 03:46:26;;;;;;;17.30;8.68;;;;;;;5.96;100.00;99353.69;5020777;28;20775;-69
2021/10/13 03:48:52;;;;;;;11.48;6.85;;;;;;;5.98;100.00;99353.56;5022747;28;20463;-69
2021/10/13 03:51:18;;;;;;;15.05;7.43;;;;;;;6.00;100.00;99364.94;5027193;28;20022;-77
2021/10/13 03:53:44;;;;;;;15.80;7.57;;;;;;;5.88;100.00;99351.78;5043082;28;20030;-74
2021/10/13 03:56:10;;;;;;;12.70;6.72;;;;;;;5.90;100.00;99341.72;5028375;28;20026;-76
2021/10/13 03:58:36;;;;;;;13.25;7.00;;;;;;;6.05;100.00;99362.63;5031411;28;20021;-74
2021/10/13 04:01:01;;;;;;;13.07;7.13;;;;;;;6.08;100.00;99370.38;5030625;28;20082;-69
2021/10/13 04:03:26;;;;;;;14.93;7.65;;;;;;;6.09;100.00;99356.78;5024428;28;20491;-67
2021/10/13 04:05:52;;;;;;;15.48;7.57;;;;;;;5.95;100.00;99337.72;5022543;28;20025;-69
2021/10/13 04:08:17;;;;;;;15.73;7.75;;;;;;;5.90;100.00;99335.50;5037890;28;20029;-69
2021/10/13 04:10:42;;;;;;;12.13;6.95;;;;;;;5.96;100.00;99350.19;5029846;28;20475;-71
2021/10/13 04:13:08;;;;;;;13.10;7.22;;;;;;;6.02;100.00;99371.84;5030744;28;20469;-69
2021/10/13 04:15:33;;;;;;;12.88;7.10;;;;;;;6.07;100.00;99379.44;5029081;28;20025;-70
2021/10/13 04:17:58;;;;;;;15.02;7.03;;;;;;;6.01;100.00;99383.59;5031208;28;20033;-69
2021/10/13 04:20:24;;;;;;;12.88;6.78;;;;;;;5.98;100.00;99394.66;5034128;28;20509;-70
2021/10/13 04:22:49;;;;;;;11.60;6.97;;;;;;;5.81;100.00;99391.00;5030282;28;20078;-71
2021/10/13 04:25:14;;;;;;;13.57;7.25;;;;;;;5.64;100.00;99373.13;5014819;28;20030;-70
2021/10/13 04:27:40;;;;;;;11.45;6.97;;;;;;;5.49;100.00;99365.63;5026023;28;20029;-71
2021/10/13 04:30:06;;;;;;;15.90;8.13;;;;;;;5.49;100.00;99387.09;5074180;22;20045;-79
2021/10/13 04:32:32;;;;;;;14.60;7.43;;;;;;;5.34;100.00;99388.66;5034256;28;20025;-73
2021/10/13 04:34:57;;;;;;;14.05;7.60;;;;;;;5.24;100.00;99375.34;5038435;28;20014;-73
2021/10/13 04:37:23;;;;;;;14.90;7.82;;;;;;;5.17;100.00;99381.47;5034089;28;20109;-75
2021/10/13 04:39:48;;;;;;;11.88;7.10;;;;;;;5.16;100.00;99391.38;5035172;28;20197;-76
2021/10/13 04:42:13;;;;;;;17.67;7.32;;;;;;;5.28;100.00;99402.69;5025802;28;20479;-76
2021/10/13 04:44:45;;;;;;;14.32;7.35;;;;;;;5.20;100.00;99386.53;5031527;28;20032;-76
2021/10/13 04:47:10;;;;;;;15.05;7.05;;;;;;;5.04;100.00;99377.34;5032202;28;20030;-76
2021/10/13 04:49:35;;;;;;;18.05;7.68;;;;;;;5.11;100.00;99395.50;5031639;28;20083;-75
2021/10/13 04:52:01;;;;;;;15.20;7.63;;;;;;;5.08;100.00;99395.81;5033738;28;20030;-77
2021/10/13 04:54:26;;;;;;;20.38;7.85;;;;;;;5.03;100.00;99366.75;5030008;28;20017;-76
2021/10/13 04:56:52;;;;;;;17.92;8.80;;;;;;;5.22;100.00;99384.53;5033201;28;20055;-78
2021/10/13 04:59:17;;;;;;;19.83;9.20;;;;;;;5.19;100.00;99395.59;5016601;28;20030;-74
2021/10/13 05:01:43;;;;;;;18.15;9.15;;;;;;;5.26;100.00;99396.63;5024081;28;20028;-75
2021/10/13 05:04:08;;;;;;;185.50;11.88;;;;;;;5.27;100.00;99412.59;5035548;28;20562;-76
2021/10/13 05:06:33;;;;;;;106.03;10.25;;;;;;;5.18;100.00;99396.56;5034884;28;20030;-75
2021/10/13 05:08:59;;;;;;;468.90;19.88;;;;;;;5.00;100.00;99408.16;5032396;28;20399;-73
2021/10/13 05:11:24;;;;;;;386.80;18.20;;;;;;;4.87;100.00;99388.06;5028561;28;20029;-77
2021/10/13 05:13:49;;;;;;;91.68;10.30;;;;;;;4.89;100.00;99400.31;5029870;28;20025;-70
2021/10/13 05:16:14;;;;;;;202.88;13.57;;;;;;;4.83;100.00;99390.22;5029505;28;20026;-76
2021/10/13 05:18:40;;;;;;;346.10;17.08;;;;;;;4.77;100.00;99410.44;5046397;28;20525;-74
2021/10/13 05:21:05;;;;;;;95.30;9.52;;;;;;;4.87;100.00;99414.88;5039673;28;20068;-74
2021/10/13 05:23:30;;;;;;;227.90;11.68;;;;;;;4.69;100.00;99388.03;5034198;28;20053;-73
2021/10/13 05:25:56;;;;;;;311.23;12.73;;;;;;;4.76;100.00;99418.63;5034064;28;20075;-70
2021/10/13 05:28:21;;;;;;;218.98;12.15;;;;;;;4.66;100.00;99417.81;5029219;28;20045;-72
2021/10/13 05:30:46;;;;;;;144.52;12.93;;;;;;;4.61;100.00;99411.09;5030299;28;20104;-71
2021/10/13 05:33:12;;;;;;;46.88;8.80;;;;;;;4.76;100.00;99432.84;5034403;28;20025;-72
2021/10/13 05:35:38;;;;;;;179.25;10.65;;;;;;;4.53;100.00;99396.75;5033989;28;20549;-75
2021/10/13 05:38:03;;;;;;;148.52;11.57;;;;;;;4.69;100.00;99429.13;5025609;28;20036;-76
2021/10/13 05:40:29;;;;;;;208.45;11.80;;;;;;;4.65;100.00;99418.84;5034608;28;20029;-76
2021/10/13 05:42:54;;;;;;;26.33;8.98;;;;;;;4.74;100.00;99434.00;5035743;28;20100;-73
2021/10/13 05:45:20;;;;;;;113.03;10.68;;;;;;;4.67;100.00;99416.84;5029972;28;20494;-75
2021/10/13 05:47:45;;;;;;;41.80;8.95;;;;;;;4.74;100.00;99434.00;5029598;28;20074;-73
2021/10/13 05:50:10;;;;;;;22.00;8.23;;;;;;;4.82;100.00;99447.50;5025930;28;20095;-71
2021/10/13 05:52:36;;;;;;;71.60;9.00;;;;;;;4.69;100.00;99439.84;5031117;28;20509;-71
2021/10/13 05:55:01;;;;;;;92.13;9.50;;;;;;;4.87;100.00;99457.75;5030312;28;20025;-70
2021/10/13 05:57:26;;;;;;;82.13;10.13;;;;;;;4.81;100.00;99451.19;5032465;28;20033;-71
2021/10/13 05:59:59;;;;;;;84.28;10.07;;;;;;;4.94;100.00;99462.38;5032256;28;20108;-72
2021/10/13 06:02:25;;;;;;;101.00;10.55;;;;;;;4.91;100.00;99484.13;5032551;28;20025;-73
2021/10/13 06:04:51;;;;;;;117.35;11.10;;;;;;;4.96;100.00;99486.38;5031677;28;20032;-74
2021/10/13 06:07:16;;;;;;;94.38;10.13;;;;;;;5.06;100.00;99492.53;5032482;28;20025;-75
2021/10/13 06:09:41;;;;;;;108.70;10.60;;;;;;;5.08;100.00;99500.41;5040377;28;20487;-74
2021/10/13 06:12:07;;;;;;;24.75;9.10;;;;;;;5.13;100.00;99488.22;5025083;28;20506;-72
2021/10/13 06:14:32;;;;;;;49.63;9.68;;;;;;;5.24;100.00;99489.88;5017574;28;20021;-74
2021/10/13 06:16:58;;;;;;;20.17;8.95;;;;;;;5.49;100.00;99504.34;5028031;28;20058;-72
2021/10/13 06:19:23;;;;;;;38.28;9.38;;;;;;;5.36;100.00;99487.78;5032740;28;20033;-76
2021/10/13 06:21:49;;;;;;;114.38;12.05;;;;;;;5.46;100.00;99500.13;5030705;28;20039;-72
2021/10/13 06:24:14;;;;;;;68.85;10.20;;;;;;;5.57;100.00;99501.72;5031511;28;20033;-69
2021/10/13 06:26:39;;;;;;;35.97;8.98;;;;;;;5.68;100.00;99508.69;5017277;28;20438;-69
2021/10/13 06:29:05;;;;;;;30.42;8.80;;;;;;;5.67;100.00;99502.50;5032267;28;20367;-71
2021/10/13 06:31:31;;;;;;;32.25;9.40;;;;;;;5.69;100.00;99513.09;5031423;28;20025;-71
2021/10/13 06:33:56;;;;;;;86.53;9.20;;;;;;;5.64;100.00;99524.28;5028261;28;20033;-72
2021/10/13 06:36:22;;;;;;;53.33;9.93;;;;;;;5.62;100.00;99530.81;5033673;28;20029;-71
2021/10/13 06:38:47;;;;;;;65.38;10.88;;;;;;;5.40;100.00;99516.00;5030771;28;20029;-71
2021/10/13 06:41:13;;;;;;;22.05;9.07;;;;;;;5.73;100.00;99549.34;5030790;28;20478;-71
2021/10/13 06:43:38;;;;;;;33.65;10.25;;;;;;;5.77;100.00;99539.16;5022843;28;20423;-73
2021/10/13 06:46:04;;;;;;;66.25;11.98;;;;;;;5.84;100.00;99553.63;5033212;28;20036;-70
2021/10/13 06:48:30;;;;;;;59.00;9.10;;;;;;;5.81;100.00;99548.59;5026416;28;20029;-69
2021/10/13 06:50:55;;;;;;;27.50;8.27;;;;;;;5.94;100.00;99541.00;5029409;28;20029;-70
2021/10/13 06:53:21;;;;;;;14.75;7.28;;;;;;;6.09;100.00;99554.72;5030354;28;20022;-68
2021/10/13 06:55:46;;;;;;;17.08;7.68;;;;;;;5.86;100.00;99528.31;5029221;28;20021;-69
2021/10/13 06:58:12;;;;;;;14.98;6.53;;;;;;;6.19;100.00;99549.28;5032136;28;20159;-69
2021/10/13 07:00:38;;;;;;;20.55;6.80;;;;;;;6.18;100.00;99552.94;5026460;28;20490;-74
2021/10/13 07:03:03;;;;;;;14.63;6.97;;;;;;;6.09;100.00;99528.72;5032481;28;20033;-71
2021/10/13 07:05:28;;;;;;;14.90;6.80;;;;;;;6.02;100.00;99534.84;5031113;28;20538;-70
2021/10/13 07:07:54;;;;;;;15.48;7.80;;;;;;;6.09;100.00;99541.31;5031479;28;20047;-75
2021/10/13 07:10:19;;;;;;;16.42;7.60;;;;;;;6.09;100.00;99549.34;5026079;28;20475;-74
2021/10/13 07:12:45;;;;;;;15.32;7.35;;;;;;;6.20;100.00;99561.69;5029143;28;20033;-74
2021/10/13 07:15:11;;;;;;;19.52;8.63;;;;;;;6.19;100.00;99542.06;5029378;28;20403;-73
2021/10/13 07:17:37;;;;;;;17.05;8.32;;;;;;;6.32;100.00;99542.47;5027575;28;20093;-73
2021/10/13 07:20:05;;;;;;;20.08;8.95;;;;;;;6.45;100.00;99554.66;5028014;28;20513;-69
2021/10/13 07:22:32;;;;;;;16.10;7.88;;;;;;;6.73;100.00;99555.31;5032899;28;20034;-69
2021/10/13 07:24:58;;;;;;;17.90;9.05;;;;;;;6.76;100.00;99546.94;5038186;28;20022;-71
2021/10/13 07:27:24;;;;;;;17.33;7.95;;;;;;;6.85;100.00;99554.03;5030377;28;20029;-69
2021/10/13 07:29:56;;;;;;;18.58;8.45;;;;;;;6.89;100.00;99546.47;5030000;28;20100;-73
2021/10/13 07:32:21;;;;;;;18.60;9.45;;;;;;;6.93;99.91;99546.00;5027022;28;20031;-71
2021/10/13 07:34:47;;;;;;;19.73;8.88;;;;;;;7.07;99.89;99549.91;5032129;28;20112;-70
2021/10/13 07:37:12;;;;;;;18.65;7.82;;;;;;;7.11;98.08;99551.28;5028206;28;20068;-71
2021/10/13 07:39:38;;;;;;;19.20;8.57;;;;;;;7.28;98.78;99556.72;5022375;28;20137;-72
2021/10/13 07:42:03;;;;;;;15.45;7.80;;;;;;;7.35;97.83;99560.44;5026529;28;20068;-72
2021/10/13 07:44:28;;;;;;;16.15;8.35;;;;;;;7.45;95.56;99569.22;5028825;28;20029;-72
2021/10/13 07:46:56;;;;;;;17.85;8.30;;;;;;;7.24;96.93;99573.19;5036758;28;20029;-71
2021/10/13 07:49:21;;;;;;;15.05;7.95;;;;;;;7.56;97.20;99571.59;5030632;28;20064;-71
2021/10/13 07:51:47;;;;;;;14.80;7.50;;;;;;;7.72;96.36;99583.41;5024432;28;20034;-73
2021/10/13 07:54:12;;;;;;;16.70;7.88;;;;;;;7.87;96.05;99576.34;5035649;28;20423;-71
2021/10/13 07:56:37;;;;;;;14.20;8.27;;;;;;;7.82;94.15;99567.94;5029274;28;20029;-73
2021/10/13 07:59:03;;;;;;;19.02;9.43;;;;;;;7.79;94.08;99569.09;5029732;28;20596;-72
2021/10/13 08:01:28;;;;;;;19.02;9.63;;;;;;;7.80;92.65;99551.91;5033337;28;20379;-74
2021/10/13 08:03:55;;;;;;;16.70;9.10;;;;;;;7.98;92.39;99581.41;5022018;28;20029;-71
2021/10/13 08:06:20;;;;;;;21.25;9.68;;;;;;;7.97;92.95;99574.34;5031286;28;20052;-71
2021/10/13 08:08:45;;;;;;;19.02;9.18;;;;;;;7.90;91.65;99578.72;5034910;28;20057;-73
2021/10/13 08:11:11;;;;;;;19.73;8.63;;;;;;;7.88;92.40;99581.56;5033498;28;20376;-72
2021/10/13 08:13:37;;;;;;;16.60;9.15;;;;;;;7.89;91.73;99604.81;5035831;28;20559;-73
2021/10/13 08:16:02;;;;;;;19.80;9.55;;;;;;;8.08;93.47;99603.66;5035411;28;20037;-72
2021/10/13 08:18:28;;;;;;;14.55;8.10;;;;;;;8.26;91.63;99600.78;5033888;28;20112;-71
2021/10/13 08:20:54;;;;;;;16.25;8.32;;;;;;;8.43;89.79;99607.03;5035687;28;20414;-71
2021/10/13 08:23:20;;;;;;;18.58;8.95;;;;;;;8.65;88.50;99599.28;5033708;28;20030;-72
2021/10/13 08:25:47;;;;;;;17.17;8.70;;;;;;;8.84;87.99;99600.75;5033700;28;20029;-71
2021/10/13 08:28:12;;;;;;;16.45;8.65;;;;;;;9.11;86.36;99599.47;5026072;28;20112;-70
2021/10/13 08:30:38;;;;;;;16.38;9.25;;;;;;;8.88;85.71;99599.38;5017758;28;20107;-72
2021/10/13 08:33:03;;;;;;;17.13;8.68;;;;;;;9.15;86.75;99607.06;5035265;28;20036;-73
2021/10/13 08:35:29;;;;;;;15.82;9.48;;;;;;;9.34;87.28;99615.75;5027268;28;20036;-71
2021/10/13 08:37:54;;;;;;;18.58;9.50;;;;;;;9.44;86.33;99606.44;5032898;28;20024;-69
2021/10/13 08:40:19;;;;;;;15.85;9.88;;;;;;;10.13;81.37;99602.13;5034439;28;20522;-70
2021/10/13 08:42:53;;;;;;;20.60;9.48;;;;;;;10.60;76.77;99595.66;5034120;28;20021;-73
2021/10/13 08:45:19;;;;;;;16.90;9.18;;;;;;;11.18;74.76;99591.28;5022912;28;20372;-69
2021/10/13 08:47:44;;;;;;;13.90;8.75;;;;;;;11.45;75.59;99584.34;5026252;28;20080;-73
2021/10/13 08:50:09;;;;;;;18.73;9.30;;;;;;;11.21;76.27;99600.91;5021483;28;20022;-73
2021/10/13 08:52:35;;;;;;;18.88;10.13;;;;;;;10.83;77.41;99596.44;5030129;28;20025;-73
2021/10/13 08:55:00;;;;;;;17.58;8.63;;;;;;;10.57;78.87;99604.97;5028501;28;20029;-73
2021/10/13 08:57:30;;;;;;;18.50;8.98;;;;;;;9.97;80.89;99579.59;5031952;28;20021;-71
2021/10/13 08:59:56;;;;;;;17.63;9.35;;;;;;;9.72;81.03;99611.34;5020373;28;20079;-74
2021/10/13 09:02:41;;;;;;;17.52;9.30;;;;;;;9.88;80.13;99602.31;5033838;28;20029;-71
2021/10/13 09:05:14;;;;;;;14.93;9.18;;;;;;;10.13;79.80;99604.81;5014268;28;20424;-73
2021/10/13 09:07:49;;;;;;;17.58;9.48;;;;;;;9.72;80.33;99570.81;5030188;28;20037;-73
2021/10/13 09:10:26;;;;;;;19.42;9.18;;;;;;;9.93;80.00;99605.31;5035161;28;20025;-73
2021/10/13 09:12:51;;;;;;;15.32;9.13;;;;;;;9.86;80.56;99578.16;5029596;28;20052;-72
2021/10/13 09:15:26;;;;;;;14.10;8.23;;;;;;;10.51;77.38;99597.59;5033229;28;20053;-72
2021/10/13 09:18:03;;;;;;;13.85;8.52;;;;;;;11.17;75.30;99605.88;5033075;28;20056;-75
2021/10/13 09:20:35;;;;;;;15.48;9.90;;;;;;;11.93;74.94;99606.41;5031859;28;20482;-73
2021/10/13 09:23:07;;;;;;;13.40;8.32;;;;;;;13.16;70.13;99607.00;5027419;28;20514;-74
2021/10/13 09:25:35;;;;;;;13.68;8.50;;;;;;;14.46;63.12;99605.94;5023196;28;20048;-75
2021/10/13 09:28:01;;;;;;;12.23;7.75;;;;;;;15.67;58.30;99571.09;5017448;28;20395;-75
2021/10/13 09:30:39;;;;;;;11.45;7.68;;;;;;;15.36;57.66;99593.69;5025343;28;20021;-74
2021/10/13 09:33:19;;;;;;;16.33;8.77;;;;;;;14.80;60.50;99606.81;5032065;28;20044;-72
2021/10/13 09:35:48;;;;;;;12.93;8.63;;;;;;;13.94;64.27;99617.59;5029662;28;20038;-74
2021/10/13 09:38:20;;;;;;;;;;;;;;;13.23;65.25;99616.03;5034722;28;20028;-75
2021/10/13 09:40:48;;;;;;;11.77;7.80;;;;;;;13.35;65.59;99600.84;5031042;28;19920;-76
2021/10/13 09:43:31;;;;;;;13.10;8.27;;;;;;;13.05;66.47;99613.00;5030356;28;20021;-77
2021/10/13 09:46:13;;;;;;;15.10;9.10;;;;;;;12.58;68.75;99609.09;5032102;28;20394;-76
2021/10/13 09:48:41;;;;;;;14.30;9.00;;;;;;;12.44;68.86;99616.28;5026405;28;20025;-74
2021/10/13 09:51:12;;;;;;;18.08;9.27;;;;;;;10.90;74.26;99618.19;5024259;28;20021;-77
2021/10/13 09:53:37;;;;;;;19.15;9.55;;;;;;;10.71;74.91;99606.03;5025360;28;20014;-73
2021/10/13 09:56:03;;;;;;;14.38;7.90;;;;;;;11.19;73.17;99620.91;5028203;28;20044;-73
2021/10/13 09:58:36;;;;;;;19.00;9.23;;;;;;;11.26;75.17;99606.59;5026935;28;20026;-74
2021/10/13 10:01:10;;;;;;;17.38;9.32;;;;;;;11.26;74.24;99601.19;5026793;28;20021;-74
2021/10/13 10:03:37;;;;;;;19.05;8.13;;;;;;;12.44;68.65;99592.72;5032220;28;20021;-75
2021/10/13 10:06:05;;;;;;;14.50;7.15;;;;;;;13.49;63.68;99609.91;5026660;28;20021;-74
2021/10/13 10:08:53;;;;;;;11.88;6.72;;;;;;;16.27;57.60;99601.63;5032103;28;20178;-78
2021/10/13 10:11:39;;;;;;;13.02;5.68;;;;;;;18.07;51.48;99592.38;5018773;28;20026;-81
2021/10/13 10:14:33;;;;;;;12.18;6.93;;;;;;;18.57;49.09;99592.00;5025727;28;20034;-74
2021/10/13 10:17:00;;;;;;;13.63;7.45;;;;;;;17.69;50.56;99568.88;5033051;28;20560;-76
2021/10/13 10:19:28;;;;;;;14.52;7.35;;;;;;;17.45;49.67;99588.97;5033362;28;20065;-69
2021/10/13 10:22:13;;;;;;;16.92;7.75;;;;;;;16.55;53.32;99590.25;5030902;28;20029;-70
2021/10/13 10:24:55;;;;;;;12.25;8.13;;;;;;;15.50;56.78;99570.75;5030318;28;20038;-73
2021/10/13 10:27:23;;;;;;;12.93;7.50;;;;;;;14.18;61.39;99597.13;5032258;28;20113;-73
2021/10/13 10:29:59;;;;;;;13.70;8.15;;;;;;;12.90;65.18;99605.78;5045594;23;20046;-70
2021/10/13 10:32:25;;;;;;;13.13;7.40;;;;;;;12.75;68.33;99605.03;5013300;28;20095;-67
2021/10/13 10:35:05;;;;;;;19.13;7.68;;;;;;;12.20;71.32;99612.09;5021469;28;20056;-67
2021/10/13 10:37:44;;;;;;;14.77;7.18;;;;;;;10.99;73.50;99617.06;5032511;28;20029;-67
2021/10/13 10:40:32;;;;;;;11.52;6.85;;;;;;;11.43;75.11;99615.38;5032768;28;20109;-67
2021/10/13 10:42:59;;;;;;;15.13;8.32;;;;;;;12.24;72.09;99613.41;5025538;28;20034;-70
2021/10/13 10:45:27;;;;;;;15.98;8.13;;;;;;;12.37;70.03;99599.13;5002191;28;20037;-70
2021/10/13 10:48:07;;;;;;;14.32;7.53;;;;;;;13.20;69.45;99610.13;5010165;28;20500;-67
2021/10/13 10:50:43;;;;;;;12.30;6.20;;;;;;;15.30;62.50;99601.66;4991045;28;20048;-70
2021/10/13 10:53:33;;;;;;;9.73;5.93;;;;;;;17.63;54.72;99599.06;4995418;28;20108;-67
2021/10/13 10:56:17;;;;;;;9.57;5.50;;;;;;;18.46;49.99;99601.06;5008559;28;20034;-68
2021/10/13 10:59:01;;;;;;;12.00;6.32;;;;;;;18.24;51.16;99599.94;5009887;28;20030;-68
2021/10/13 11:01:26;;;;;;;15.32;6.30;;;;;;;17.09;53.69;99598.84;4990783;28;20031;-69
2021/10/13 11:03:52;;;;;;;11.18;6.88;;;;;;;15.72;56.66;99609.53;4997113;28;20036;-71
2021/10/13 11:06:20;;;;;;;10.82;6.30;;;;;;;14.68;59.75;99613.94;5009281;28;20034;-71
2021/10/13 11:08:49;;;;;;;9.57;6.32;;;;;;;13.88;62.67;99613.78;5007603;28;20022;-70
2021/10/13 11:11:15;;;;;;;11.10;5.83;;;;;;;13.23;64.36;99609.72;5007834;28;20124;-72
2021/10/13 11:13:40;;;;;;;16.55;6.75;;;;;;;12.55;68.02;99614.91;5007983;28;20423;-68
2021/10/13 11:16:09;;;;;;;10.60;5.82;;;;;;;12.39;69.57;99622.31;5007588;28;20053;-68
2021/10/13 11:18:35;;;;;;;12.88;7.07;;;;;;;12.54;69.17;99596.94;5002881;28;20022;-68
2021/10/13 11:21:10;;;;;;;10.70;6.13;;;;;;;13.10;67.38;99616.78;4991668;28;20031;-68
2021/10/13 11:23:36;;;;;;;11.40;5.45;;;;;;;14.76;62.53;99589.19;5004824;28;20108;-68
2021/10/13 11:26:02;;;;;;;8.18;4.57;;;;;;;16.44;56.79;99597.28;5009942;28;20483;-68
2021/10/13 11:28:35;;;;;;;8.80;4.95;;;;;;;18.01;53.00;99597.97;5005525;28;20034;-69
2021/10/13 11:31:04;;;;;;;6.47;3.88;;;;;;;17.66;50.12;99602.19;4996872;28;20030;-72
2021/10/13 11:33:29;;;;;;;7.55;3.97;;;;;;;16.75;53.18;99598.31;5008966;28;20044;-69